DW6345 Murcia ES current weather conditions

sailwx.info

Wind from 158 at 1 knots gusting 15

Air temperature 55.6° C
Dewpoint 46.5° C

Last reported at 2014-Jul-30 03:45 UTC.
Time now 2014-Jul-30 05:04 UTC

Location: N 37°60' W 001°06'.
View on Google Maps.

See reports from other nearby stations

  
Tides and Currents Weather Stations Pressure Air Temp Water Temp Dewpoint Dewpoint Depression Visibility Wind Speed Wind Dir Waves Ship Positions
date/time (UTC)wind fromknots sea level pressurealtimeterstation pressurevisibilityair tempwater tempwave heightnotes
2014-Jul-30 03:45 158 1 gusting 15 55.6
2014-Jul-30 03:35 158 1 gusting 15 55.6
2014-Jul-30 03:25 158 1 gusting 15 55.6
2014-Jul-30 03:15 158 1 gusting 15 55.6
2014-Jul-30 03:05 158 1 gusting 15 55.6
2014-Jul-30 02:55 158 1 gusting 15 55.6
2014-Jul-30 02:45 158 1 gusting 15 55.6
2014-Jul-30 02:35 158 1 gusting 15 55.6
2014-Jul-30 02:25 158 1 gusting 15 55.6
2014-Jul-30 02:15 158 1 gusting 15 55.6
2014-Jul-30 02:05 158 1 gusting 15 38.3
2014-Jul-30 01:55 090 1 gusting 2 23.3
2014-Jul-30 01:45 090 1 gusting 2 23.3
2014-Jul-30 01:35 090 2 gusting 5 23.9
2014-Jul-30 01:25 090 2 gusting 5 23.9
2014-Jul-30 01:15 090 2 gusting 5 23.9
2014-Jul-30 01:05 090 2 gusting 5 23.9
2014-Jul-30 00:55 090 2 gusting 5 23.9
2014-Jul-30 00:45 090 2 gusting 5 23.9
2014-Jul-30 00:35 090 2 gusting 5 23.9
2014-Jul-30 00:25 090 2 gusting 5 23.9
2014-Jul-30 00:15 090 2 gusting 5 23.9
2014-Jul-30 00:05 090 2 gusting 5 23.9
2014-Jul-29 23:55 090 2 gusting 5 23.9
2014-Jul-29 23:45 090 2 gusting 5 24.4
2014-Jul-29 23:35 090 2 gusting 5 24.4
2014-Jul-29 23:25 090 3 gusting 5 23.9
2014-Jul-29 23:15 090 2 gusting 6 24.4
2014-Jul-29 23:05 090 2 gusting 6 24.4
2014-Jul-29 22:55 102 2 gusting 5 24.4
2014-Jul-29 22:45 090 2 gusting 6 24.4
2014-Jul-29 22:35 090 4 gusting 6 25.0
2014-Jul-29 22:25 090 1 gusting 4 25.0
2014-Jul-29 22:14 105 2 gusting 5 25.0
2014-Jul-29 22:05 090 2 gusting 5 25.6
2014-Jul-29 21:55 090 2 gusting 5 25.6
2014-Jul-29 21:45 090 2 gusting 5 25.6
2014-Jul-29 21:35 116 2 gusting 5 25.6
2014-Jul-29 21:25 135 2 gusting 5 25.6
2014-Jul-29 21:15 090 3 gusting 6 25.6
2014-Jul-29 21:05 090 1 gusting 5 25.6
2014-Jul-29 20:55 090 2 gusting 6 25.6
2014-Jul-29 20:45 105 2 gusting 5 25.6
2014-Jul-29 20:35 074 1 gusting 5 25.6
2014-Jul-29 20:25 150 2 gusting 5 26.1
2014-Jul-29 20:15 106 1 gusting 6 25.6
2014-Jul-29 20:05 315 4 gusting 8 26.1
2014-Jul-29 19:55 135 4 gusting 8 26.1
2014-Jul-29 19:45 045 3 gusting 8 26.1
2014-Jul-29 19:35 135 5 gusting 8 26.1
2014-Jul-29 19:25 069 4 gusting 11 26.1
2014-Jul-29 19:15 090 6 gusting 11 26.7
2014-Jul-29 19:05 135 5 gusting 10 26.7
2014-Jul-29 18:55 090 5 gusting 10 26.7
2014-Jul-29 18:45 090 5 gusting 13 27.2
2014-Jul-29 18:35 090 7 gusting 13 27.8
2014-Jul-29 18:25 119 4 gusting 11 28.3
2014-Jul-29 18:15 135 5 gusting 11 28.3
2014-Jul-29 18:05 160 6 gusting 13 28.3
2014-Jul-29 17:55 158 10 gusting 13 28.3
2014-Jul-29 17:45 225 5 gusting 13 28.3
2014-Jul-29 17:35 180 7 gusting 13 28.9
2014-Jul-29 17:25 180 6 gusting 14 28.9
2014-Jul-29 17:15 180 6 gusting 14 29.4
2014-Jul-29 17:05 180 8 gusting 14 30.0
2014-Jul-29 16:55 163 6 gusting 12 30.0
2014-Jul-29 16:45 180 5 gusting 13 30.0
2014-Jul-29 16:35 180 5 gusting 12 30.0
2014-Jul-29 16:25 180 6 gusting 11 30.6
2014-Jul-29 16:15 180 6 gusting 10 30.6
2014-Jul-29 16:05 158 5 gusting 13 30.6
2014-Jul-29 15:55 180 7 gusting 13 30.6
2014-Jul-29 15:45 180 6 gusting 13 30.6
2014-Jul-29 15:35 171 6 gusting 11 31.1
2014-Jul-29 15:25 149 6 gusting 13 30.6
2014-Jul-29 15:15 144 5 gusting 12 31.1
2014-Jul-29 15:05 170 6 gusting 14 30.6
2014-Jul-29 14:55 117 5 gusting 12 31.1
2014-Jul-29 14:45 170 8 gusting 13 31.1
2014-Jul-29 14:35 130 6 gusting 13 31.1
2014-Jul-29 14:25 144 7 gusting 17 30.6
2014-Jul-29 14:15 097 7 gusting 15 30.6
2014-Jul-29 14:05 093 10 gusting 15 30.6
2014-Jul-29 13:55 132 7 gusting 18 30.6
2014-Jul-29 13:45 090 8 gusting 18 30.6
2014-Jul-29 13:35 100 7 gusting 18 30.6
2014-Jul-29 13:25 096 5 gusting 15 31.1
2014-Jul-29 13:15 067 6 gusting 17 31.1
2014-Jul-29 13:05 090 10 gusting 17 31.1
2014-Jul-29 12:55 090 9 gusting 14 30.6
2014-Jul-29 12:45 094 10 gusting 15 31.1
2014-Jul-29 12:35 090 6 gusting 13 31.1
2014-Jul-29 12:25 100 6 gusting 12 31.1
2014-Jul-29 12:15 090 6 gusting 13 30.6
2014-Jul-29 12:05 112 6 gusting 12 31.1
2014-Jul-29 11:55 163 6 gusting 12 30.6
2014-Jul-29 11:45 097 6 gusting 14 30.6
2014-Jul-29 11:35 135 6 gusting 13 30.6
2014-Jul-29 11:25 081 6 gusting 14 30.6
2014-Jul-29 11:15 102 5 gusting 13 30.6
2014-Jul-29 11:05 045 6 gusting 13 30.6
2014-Jul-29 10:55 090 6 gusting 13 30.0
2014-Jul-29 10:45 090 7 gusting 13 30.6
2014-Jul-29 10:35 123 6 gusting 11 30.6
2014-Jul-29 10:25 090 5 gusting 13 30.6
2014-Jul-29 10:15 135 6 gusting 13 30.6
2014-Jul-29 10:05 090 2 gusting 14 30.6
2014-Jul-29 09:55 115 6 gusting 13 30.0
2014-Jul-29 09:45 135 6 gusting 11 30.0
2014-Jul-29 09:35 090 6 gusting 12 30.0
2014-Jul-29 09:25 090 5 gusting 12 29.4
2014-Jul-29 09:15 135 4 gusting 8 29.4
2014-Jul-29 09:05 202 2 gusting 10 29.4
2014-Jul-29 08:55 152 3 gusting 8 29.4
2014-Jul-29 08:45 083 0 gusting 6 29.4
2014-Jul-29 08:35 146 1 gusting 6 28.9
2014-Jul-29 08:25 152 1 gusting 8 28.9
2014-Jul-29 08:15 141 1 gusting 6 28.3
2014-Jul-29 08:05 106 2 gusting 8 28.3
2014-Jul-29 07:55 095 1 gusting 4 28.3
2014-Jul-29 07:45 090 2 gusting 5 27.8
2014-Jul-29 07:35 084 1 gusting 2 27.8
2014-Jul-29 07:25 059 1 gusting 5 27.8
2014-Jul-29 07:15 124 0 gusting 4 27.2
2014-Jul-29 07:05 090 0 gusting 2 26.1
2014-Jul-29 06:55 045 0 gusting 2 26.1
2014-Jul-29 06:45 045 1 gusting 2 26.1
2014-Jul-29 06:35 076 0 gusting 2 26.1
2014-Jul-29 06:25 060 0 gusting 2 25.6
2014-Jul-29 06:15 090 0 gusting 2 25.6
2014-Jul-29 06:05 045 25.6
2014-Jul-29 05:55 045 0 gusting 1 25.0
2014-Jul-29 05:45 045 25.0
2014-Jul-29 05:35 045 25.0
2014-Jul-29 05:25 115 25.0
2014-Jul-29 05:15 099 0 gusting 2 25.0
2014-Jul-29 05:05 135 0 gusting 2 25.0
2014-Jul-29 04:55 045 0 gusting 2 25.0
2014-Jul-29 04:45 108 0 gusting 1 25.0
2014-Jul-29 04:35 122 0 gusting 2 25.0
2014-Jul-29 04:25 054 1 gusting 2 25.0
2014-Jul-29 04:15 045 1 gusting 2 25.0
2014-Jul-29 04:05 090 25.0
2014-Jul-29 03:55 093 0 gusting 2 25.0
2014-Jul-29 03:45 094 0 gusting 2 25.0
2014-Jul-29 03:35 100 2 gusting 5 25.0
2014-Jul-29 03:25 090 1 gusting 5 25.0
2014-Jul-29 03:15 090 2 gusting 5 25.0
2014-Jul-29 03:05 090 0 gusting 4 25.0
2014-Jul-29 02:55 078 0 gusting 4 25.0
2014-Jul-29 02:45 090 0 gusting 5 25.0
2014-Jul-29 02:35 090 2 gusting 5 25.0
2014-Jul-29 02:25 064 2 gusting 6 25.6
2014-Jul-29 02:15 090 2 gusting 6 25.6
2014-Jul-29 02:05 090 5 gusting 6 25.6
2014-Jul-29 01:55 109 4 gusting 6 25.6
2014-Jul-29 01:45 090 3 gusting 8 25.6
2014-Jul-29 01:35 090 6 gusting 11 25.6
2014-Jul-29 01:25 068 6 gusting 11 25.6
2014-Jul-29 01:15 090 4 gusting 12 25.6
2014-Jul-29 01:05 090 7 gusting 14 25.6
2014-Jul-29 00:55 079 7 gusting 17 25.6
2014-Jul-29 00:45 073 8 gusting 14 25.6
2014-Jul-29 00:35 090 7 gusting 14 25.6
2014-Jul-29 00:25 076 6 gusting 14 25.6
2014-Jul-29 00:15 071 5 gusting 13 26.1
2014-Jul-29 00:05 090 6 gusting 13 26.1
2014-Jul-28 23:55 090 7 gusting 13 26.1
2014-Jul-28 23:45 045 5 gusting 12 26.1
2014-Jul-28 23:35 066 4 gusting 7 26.1
2014-Jul-28 23:25 079 5 gusting 8 26.7
2014-Jul-28 23:15 055 4 gusting 8 26.7
2014-Jul-28 23:05 045 4 gusting 6 27.2
2014-Jul-28 22:55 090 4 gusting 6 27.2
2014-Jul-28 22:45 090 2 gusting 6 27.8
2014-Jul-28 22:35 090 2 gusting 6 27.8
2014-Jul-28 22:25 090 3 gusting 6 27.8
2014-Jul-28 22:14 116 2 gusting 6 27.8
2014-Jul-28 22:05 180 2 gusting 6 28.3
2014-Jul-28 21:55 270 2 gusting 6 28.3
2014-Jul-28 21:45 280 0 gusting 5 28.9
2014-Jul-28 21:35 090 0 gusting 6 28.9
2014-Jul-28 21:25 090 1 gusting 6 29.4
2014-Jul-28 21:15 099 0 gusting 4 29.4
2014-Jul-28 21:05 135 0 gusting 4 30.0
2014-Jul-28 20:55 090 2 gusting 6 30.6
2014-Jul-28 20:45 090 2 gusting 6 31.1
2014-Jul-28 20:35 122 3 gusting 6 31.1
2014-Jul-28 20:25 079 1 gusting 4 31.7
2014-Jul-28 20:15 180 0 gusting 4 31.7
2014-Jul-28 20:05 174 1 gusting 5 31.7
2014-Jul-28 19:55 180 2 gusting 5 32.2
2014-Jul-28 19:45 180 2 gusting 6 32.2
2014-Jul-28 19:35 180 1 gusting 5 32.8
2014-Jul-28 19:25 135 1 gusting 5 32.8
2014-Jul-28 19:15 180 1 gusting 5 33.3
2014-Jul-28 19:05 135 2 gusting 5 33.9
2014-Jul-28 18:55 135 2 gusting 5 34.4
2014-Jul-28 18:45 135 2 gusting 5 34.4
2014-Jul-28 18:35 110 0 gusting 5 35.0
2014-Jul-28 18:25 119 2 gusting 5 35.0
2014-Jul-28 18:15 155 3 gusting 6 35.6
2014-Jul-28 18:05 180 2 gusting 6 35.0
2014-Jul-28 17:55 225 3 gusting 7 35.6
2014-Jul-28 17:45 225 5 gusting 6 35.6
2014-Jul-28 17:35 225 4 gusting 47 35.6
2014-Jul-28 17:25 180 2 gusting 6 35.6
2014-Jul-28 17:15 180 4 gusting 6 36.1
2014-Jul-28 17:05 180 4 gusting 6 35.6
2014-Jul-28 16:55 145 5 gusting 13 35.6
2014-Jul-28 16:45 178 5 gusting 11 35.6
2014-Jul-28 16:35 225 6 gusting 13 35.0
2014-Jul-28 16:25 180 7 gusting 13 35.6
2014-Jul-28 16:15 180 5 gusting 13 35.6
2014-Jul-28 16:05 180 5 gusting 14 35.6
2014-Jul-28 15:55 145 9 gusting 14 35.6
2014-Jul-28 15:45 180 6 gusting 13 35.6
2014-Jul-28 15:35 216 6 gusting 13 35.6
2014-Jul-28 15:25 176 6 gusting 13 35.6
2014-Jul-28 15:15 180 8 gusting 14 35.6
2014-Jul-28 15:05 180 6 gusting 13 35.6
2014-Jul-28 14:55 180 6 gusting 13 35.6
2014-Jul-28 14:45 180 4 gusting 12 35.6
2014-Jul-28 14:35 180 5 gusting 8 35.6
2014-Jul-28 14:25 169 6 gusting 11 35.6
2014-Jul-28 14:15 135 6 gusting 13 35.6
2014-Jul-28 14:05 173 6 gusting 11 35.6
2014-Jul-28 13:55 180 5 gusting 11 35.6
2014-Jul-28 13:45 135 6 gusting 12 35.0
2014-Jul-28 13:35 202 7 gusting 12 35.6
2014-Jul-28 13:25 180 8 gusting 13 35.0
2014-Jul-28 13:15 180 5 gusting 11 35.0
2014-Jul-28 13:05 180 5 gusting 13 35.0
2014-Jul-28 12:55 180 6 gusting 13 35.0
2014-Jul-28 12:45 156 6 gusting 12 35.6
2014-Jul-28 12:35 202 5 gusting 13 35.0
2014-Jul-28 12:25 180 5 gusting 8 35.6
2014-Jul-28 12:15 135 2 gusting 6 35.0
2014-Jul-28 12:05 180 5 gusting 7 35.0
2014-Jul-28 11:55 180 4 gusting 7 35.0
2014-Jul-28 11:45 135 1 gusting 7 35.0
2014-Jul-28 11:35 133 2 gusting 5 34.4
2014-Jul-28 11:25 102 2 gusting 6 34.4
2014-Jul-28 11:15 090 1 gusting 6 33.9
2014-Jul-28 11:05 135 2 gusting 5 33.3
2014-Jul-28 10:55 090 1 gusting 4 32.8
2014-Jul-28 10:45 076 0 gusting 2 31.7
2014-Jul-28 10:35 166 0 gusting 5 31.7
2014-Jul-28 10:25 180 0 gusting 5 31.1
2014-Jul-28 10:15 294 2 gusting 5 31.1
2014-Jul-28 10:05 270 0 gusting 5 30.6
2014-Jul-28 09:55 045 0 gusting 2 30.6
2014-Jul-28 09:45 071 1 gusting 6 29.4
2014-Jul-28 09:35 315 4 gusting 6 29.4
2014-Jul-28 09:25 315 2 gusting 5 30.0
2014-Jul-28 09:15 315 0 gusting 2 30.0
2014-Jul-28 09:05 045 0 gusting 2 28.9
2014-Jul-28 08:55 270 28.9
2014-Jul-28 08:45 107 0 gusting 2 28.3
2014-Jul-28 08:35 045 1 gusting 2 27.8
2014-Jul-28 08:25 179 27.2
2014-Jul-28 08:15 315 1 gusting 4 26.7
2014-Jul-28 08:05 225 0 gusting 4 26.7
2014-Jul-28 07:55 315 1 gusting 4 27.2
2014-Jul-28 07:45 297 2 gusting 4 27.8
2014-Jul-28 07:35 112 0 gusting 1 27.2
2014-Jul-28 07:25 145 26.7
2014-Jul-28 07:15 168 1 gusting 4 26.1
2014-Jul-28 07:05 145 1 gusting 2 25.6
2014-Jul-28 06:55 176 1 gusting 2 25.0
2014-Jul-28 06:45 050 0 gusting 2 24.4
2014-Jul-28 06:35 106 24.4
2014-Jul-28 06:25 180 0 gusting 2 23.9
2014-Jul-28 06:15 206 0 gusting 2 23.9
2014-Jul-28 06:05 270 0 gusting 1 23.3
2014-Jul-28 05:55 242 0 gusting 2 23.3
2014-Jul-28 05:45 225 0 gusting 2 22.8
2014-Jul-28 05:35 180 22.8
2014-Jul-28 05:25 180 0 gusting 1 22.8
2014-Jul-28 05:15 124 22.8
2014-Jul-28 05:05 045 22.8